createdAt,value
2023-04-28T00:01:50.675Z,953.96
2023-04-28T00:04:17.589Z,953.99
2023-04-28T00:06:43.485Z,954.08
2023-04-28T00:09:09.894Z,953.99
2023-04-28T00:11:36.311Z,954.05
2023-04-28T00:14:02.770Z,954.08
2023-04-28T00:16:29.247Z,954.05
2023-04-28T00:18:55.557Z,954.04
2023-04-28T00:21:22.059Z,954.11
2023-04-28T00:23:48.439Z,954.12
2023-04-28T00:26:14.950Z,954.00
2023-04-28T00:28:41.312Z,954.05
2023-04-28T00:31:09.127Z,954.09
2023-04-28T00:33:34.243Z,954.06
2023-04-28T00:36:00.706Z,954.15
2023-04-28T00:38:27.067Z,954.12
2023-04-28T00:40:53.504Z,954.18
2023-04-28T00:43:19.951Z,954.19
2023-04-28T00:45:46.507Z,954.17
2023-04-28T00:48:12.825Z,954.17
2023-04-28T00:50:39.503Z,954.14
2023-04-28T00:53:05.917Z,954.21
2023-04-28T00:55:32.332Z,954.20
2023-04-28T00:57:58.795Z,954.21
2023-04-28T01:00:25.185Z,954.27
2023-04-28T01:02:51.733Z,954.26
2023-04-28T01:05:18.080Z,954.22
2023-04-28T01:07:44.457Z,954.24
2023-04-28T01:10:10.917Z,954.23
2023-04-28T01:12:37.280Z,954.30
2023-04-28T01:15:03.687Z,954.34
2023-04-28T01:17:30.188Z,954.32
2023-04-28T01:19:56.552Z,954.34
2023-04-28T01:22:23.028Z,954.37
2023-04-28T01:24:49.435Z,954.37
2023-04-28T01:27:15.934Z,954.37
2023-04-28T01:29:42.299Z,954.45
2023-04-28T01:32:08.690Z,954.38
2023-04-28T01:34:35.148Z,954.37
2023-04-28T01:37:01.628Z,954.37
2023-04-28T01:39:28.085Z,954.34
2023-04-28T01:41:54.610Z,954.33
2023-04-28T01:44:21.111Z,954.35
2023-04-28T01:46:47.511Z,954.36
2023-04-28T01:49:13.920Z,954.34
2023-04-28T01:51:40.435Z,954.33
2023-04-28T01:54:06.798Z,954.37
2023-04-28T01:56:33.268Z,954.34
2023-04-28T01:58:59.733Z,954.35
2023-04-28T02:01:26.136Z,954.35
2023-04-28T02:03:52.831Z,954.29
2023-04-28T02:06:18.991Z,954.33
2023-04-28T02:08:45.388Z,954.39
2023-04-28T02:11:11.834Z,954.43
2023-04-28T02:13:38.312Z,954.37
2023-04-28T02:16:04.744Z,954.41
2023-04-28T02:18:31.262Z,954.50
2023-04-28T02:20:57.636Z,954.42
2023-04-28T02:23:24.162Z,954.52
2023-04-28T02:25:50.548Z,954.55
2023-04-28T02:28:16.959Z,954.51
2023-04-28T02:30:43.338Z,954.55
2023-04-28T02:33:11.487Z,954.47
2023-04-28T02:35:36.287Z,954.51
2023-04-28T02:38:02.708Z,954.55
2023-04-28T02:40:29.125Z,954.61
2023-04-28T02:42:55.584Z,954.64
2023-04-28T02:45:22.069Z,954.59
2023-04-28T02:47:48.451Z,954.65
2023-04-28T02:50:15.013Z,954.62
2023-04-28T02:52:41.473Z,954.70
2023-04-28T02:55:07.917Z,954.67
2023-04-28T02:57:34.450Z,954.74
2023-04-28T03:00:00.796Z,954.74
2023-04-28T03:02:27.344Z,954.75
2023-04-28T03:04:53.811Z,954.80
2023-04-28T03:07:20.232Z,954.73
2023-04-28T03:09:46.557Z,954.77
2023-04-28T03:12:13.021Z,954.73
2023-04-28T03:14:39.408Z,954.76
2023-04-28T03:17:05.808Z,954.75
2023-04-28T03:19:32.184Z,954.75
2023-04-28T03:21:58.614Z,954.76
2023-04-28T03:24:24.986Z,954.87
2023-04-28T03:26:51.536Z,954.88
2023-04-28T03:29:18.207Z,954.98
2023-04-28T03:31:44.697Z,954.99
2023-04-28T03:34:11.019Z,955.02
2023-04-28T03:36:37.412Z,955.11
2023-04-28T03:39:03.833Z,955.16
2023-04-28T03:41:30.202Z,955.15
2023-04-28T03:43:56.699Z,955.15
2023-04-28T03:46:23.196Z,955.25
2023-04-28T03:48:49.561Z,955.26
2023-04-28T03:51:15.962Z,955.27
2023-04-28T03:53:42.474Z,955.29
2023-04-28T03:56:08.906Z,955.31
2023-04-28T03:58:35.318Z,955.36
2023-04-28T04:01:01.782Z,955.42
2023-04-28T04:03:28.358Z,955.48
2023-04-28T04:05:54.657Z,955.48
2023-04-28T04:08:20.992Z,955.56
2023-04-28T04:10:47.460Z,955.58
2023-04-28T04:13:13.829Z,955.50
2023-04-28T04:15:40.283Z,955.56
2023-04-28T04:18:06.760Z,955.55
2023-04-28T04:20:33.220Z,955.54
2023-04-28T04:22:59.632Z,955.68
2023-04-28T04:25:26.221Z,955.67
2023-04-28T04:27:52.565Z,955.71
2023-04-28T04:30:19.106Z,955.71
2023-04-28T04:32:45.584Z,955.69
2023-04-28T04:35:12.131Z,955.72
2023-04-28T04:37:38.558Z,955.70
2023-04-28T04:40:04.995Z,955.73
2023-04-28T04:42:31.468Z,955.75
2023-04-28T04:44:57.878Z,955.71
2023-04-28T04:47:24.337Z,955.77
2023-04-28T04:49:50.785Z,955.77
2023-04-28T04:52:17.185Z,955.80
2023-04-28T04:54:43.566Z,955.82
2023-04-28T04:57:10.004Z,955.88
2023-04-28T04:59:36.450Z,955.89
2023-04-28T05:02:02.988Z,955.95
2023-04-28T05:04:29.599Z,955.96
2023-04-28T05:06:55.903Z,956.06
2023-04-28T05:09:22.341Z,956.06
2023-04-28T05:11:48.984Z,956.03
2023-04-28T05:14:15.564Z,956.09
2023-04-28T05:16:42.935Z,956.10
2023-04-28T05:19:09.346Z,956.10
2023-04-28T05:21:35.699Z,956.06
2023-04-28T05:24:02.145Z,956.08
2023-04-28T05:26:28.607Z,956.10
2023-04-28T05:28:55.035Z,956.07
2023-04-28T05:31:21.480Z,956.05
2023-04-28T05:33:47.863Z,956.03
2023-04-28T05:36:14.249Z,956.02
2023-04-28T05:38:40.699Z,955.97
2023-04-28T05:41:07.166Z,955.93
2023-04-28T05:43:33.528Z,955.94
2023-04-28T05:46:00.213Z,955.94
2023-04-28T05:48:26.565Z,956.01
2023-04-28T05:50:53.025Z,956.01
2023-04-28T05:53:19.365Z,956.01
2023-04-28T05:55:45.996Z,955.99
2023-04-28T05:58:12.424Z,956.00
2023-04-28T06:00:38.934Z,955.98
2023-04-28T06:03:05.405Z,956.03
2023-04-28T06:05:32.118Z,956.09
2023-04-28T06:07:58.128Z,956.10
2023-04-28T06:10:24.596Z,956.07
2023-04-28T06:12:50.971Z,956.00
2023-04-28T06:15:17.434Z,956.04
2023-04-28T06:17:43.920Z,956.02
2023-04-28T06:20:10.340Z,956.04
2023-04-28T06:22:36.781Z,956.00
2023-04-28T06:25:03.166Z,956.04
2023-04-28T06:27:29.544Z,956.07
2023-04-28T06:29:55.922Z,956.11
2023-04-28T06:32:22.365Z,956.02
2023-04-28T06:34:48.725Z,956.06
2023-04-28T06:37:17.292Z,955.99
2023-04-28T06:39:43.776Z,955.99
2023-04-28T06:42:10.562Z,956.02
2023-04-28T06:44:36.993Z,956.01
2023-04-28T06:47:03.381Z,955.99
2023-04-28T06:49:29.801Z,955.93
2023-04-28T06:51:56.259Z,955.98
2023-04-28T06:54:22.680Z,955.87
2023-04-28T06:56:49.034Z,955.95
2023-04-28T06:59:15.583Z,956.00
2023-04-28T07:01:42.169Z,956.00
2023-04-28T07:04:08.750Z,956.01
2023-04-28T07:06:35.185Z,955.99
2023-04-28T07:09:01.615Z,956.01
2023-04-28T07:11:28.003Z,956.05
2023-04-28T07:13:54.475Z,956.00
2023-04-28T07:16:20.859Z,956.00
2023-04-28T07:18:47.206Z,955.96
2023-04-28T07:21:13.716Z,955.97
2023-04-28T07:23:41.325Z,955.98
2023-04-28T07:26:07.749Z,955.94
2023-04-28T07:28:34.160Z,955.87
2023-04-28T07:31:00.595Z,955.87
2023-04-28T07:33:27.052Z,955.91
2023-04-28T07:35:53.491Z,955.84
2023-04-28T07:38:19.849Z,955.84
2023-04-28T07:40:46.426Z,955.86
2023-04-28T07:43:13.227Z,955.86
2023-04-28T07:45:39.617Z,955.81
2023-04-28T07:48:06.035Z,955.88
2023-04-28T07:50:32.361Z,955.87
2023-04-28T07:52:58.882Z,955.79
2023-04-28T07:55:25.300Z,955.84
2023-04-28T07:57:51.731Z,955.84
2023-04-28T08:00:19.151Z,955.83
2023-04-28T08:02:45.748Z,955.84
2023-04-28T08:05:12.190Z,955.87
2023-04-28T08:07:38.616Z,955.87
2023-04-28T08:10:04.994Z,955.81
2023-04-28T08:12:31.426Z,955.86
2023-04-28T08:14:57.828Z,955.81
2023-04-28T08:17:24.278Z,955.83
2023-04-28T08:19:50.673Z,955.86
2023-04-28T08:22:17.045Z,955.86
2023-04-28T08:24:43.479Z,955.82
2023-04-28T08:27:09.897Z,955.81
2023-04-28T08:29:37.354Z,955.83
2023-04-28T08:32:03.834Z,955.83
2023-04-28T08:34:30.180Z,955.78
2023-04-28T08:36:56.629Z,955.69
2023-04-28T08:39:23.079Z,955.78
2023-04-28T08:41:49.450Z,955.74
2023-04-28T08:44:18.232Z,955.74
2023-04-28T08:46:44.466Z,955.70
2023-04-28T08:49:10.834Z,955.73
2023-04-28T08:51:38.141Z,955.70
2023-04-28T08:54:29.551Z,955.64
2023-04-28T08:56:30.474Z,955.65
2023-04-28T08:58:56.964Z,955.63
2023-04-28T09:01:23.387Z,955.65
2023-04-28T09:03:50.070Z,955.64
2023-04-28T09:06:16.359Z,955.67
2023-04-28T09:08:42.769Z,955.66
2023-04-28T09:11:09.214Z,955.58
2023-04-28T09:13:35.590Z,955.58
2023-04-28T09:16:02.089Z,955.52
2023-04-28T09:18:28.481Z,955.43
2023-04-28T09:20:54.876Z,955.34
2023-04-28T09:23:21.262Z,955.34
2023-04-28T09:25:50.057Z,955.33
2023-04-28T09:28:16.447Z,955.31
2023-04-28T09:30:42.881Z,955.27
2023-04-28T09:33:11.412Z,955.37
2023-04-28T09:35:35.754Z,955.26
2023-04-28T09:38:02.169Z,955.22
2023-04-28T09:40:29.018Z,955.20
2023-04-28T09:42:55.487Z,955.17
2023-04-28T09:45:22.947Z,955.18
2023-04-28T09:47:49.799Z,955.21
2023-04-28T09:50:16.212Z,955.04
2023-04-28T09:52:42.959Z,955.04
2023-04-28T09:55:09.414Z,955.06
2023-04-28T09:57:35.798Z,955.03
2023-04-28T10:00:02.243Z,954.98
2023-04-28T10:04:55.269Z,954.95
2023-04-28T10:07:21.490Z,954.91
2023-04-28T10:09:47.882Z,954.91
2023-04-28T10:12:14.746Z,954.76
2023-04-28T10:14:41.327Z,954.90
2023-04-28T10:17:07.594Z,954.84
2023-04-28T10:19:34.002Z,954.79
2023-04-28T10:22:00.421Z,954.86
2023-04-28T10:24:27.187Z,954.78
2023-04-28T10:26:53.537Z,954.75
2023-04-28T10:29:20.254Z,954.70
2023-04-28T10:31:46.725Z,954.78
2023-04-28T10:34:13.423Z,954.69
2023-04-28T10:36:39.922Z,954.60
2023-04-28T10:39:06.336Z,954.68
2023-04-28T10:41:32.754Z,954.59
2023-04-28T10:44:00.558Z,954.51
2023-04-28T10:46:27.230Z,954.57
2023-04-28T10:48:54.578Z,954.51
2023-04-28T10:51:21.061Z,954.43
2023-04-28T10:53:47.761Z,954.42
2023-04-28T10:56:13.956Z,954.41
2023-04-28T10:58:40.430Z,954.37
2023-04-28T11:01:06.849Z,954.43
2023-04-28T11:03:34.105Z,954.43
2023-04-28T11:06:00.427Z,954.36
2023-04-28T11:08:26.816Z,954.31
2023-04-28T11:10:53.234Z,954.33
2023-04-28T11:13:19.659Z,954.26
2023-04-28T11:15:46.034Z,954.25
2023-04-28T11:18:12.484Z,954.19
2023-04-28T11:20:38.883Z,954.16
2023-04-28T11:23:05.297Z,954.16
2023-04-28T11:25:31.699Z,954.16
2023-04-28T11:27:58.146Z,954.05
2023-04-28T11:30:24.517Z,953.99
2023-04-28T11:32:52.061Z,953.99
2023-04-28T11:35:18.419Z,953.98
2023-04-28T11:37:44.821Z,953.90
2023-04-28T11:40:11.731Z,953.95
2023-04-28T11:42:38.572Z,953.94
2023-04-28T11:45:04.984Z,953.94
2023-04-28T11:47:31.530Z,953.88
2023-04-28T11:49:57.941Z,953.86
2023-04-28T11:52:24.385Z,953.88
2023-04-28T11:54:50.803Z,953.81
2023-04-28T11:57:17.200Z,953.81
2023-04-28T11:59:44.041Z,953.78
2023-04-28T12:02:10.307Z,953.82
2023-04-28T12:04:36.682Z,953.77
2023-04-28T12:07:03.179Z,953.76
2023-04-28T12:09:29.570Z,953.72
2023-04-28T12:11:57.396Z,953.69
2023-04-28T12:14:23.827Z,953.68
2023-04-28T12:16:50.206Z,953.61
2023-04-28T12:19:16.609Z,953.52
2023-04-28T12:21:43.083Z,953.49
2023-04-28T12:24:09.468Z,953.50
2023-04-28T12:26:35.881Z,953.43
2023-04-28T12:29:02.718Z,953.48
2023-04-28T12:31:29.188Z,953.42
2023-04-28T12:33:55.631Z,953.46
2023-04-28T12:36:22.065Z,953.39
2023-04-28T12:38:48.491Z,953.33
2023-04-28T12:41:14.887Z,953.26
2023-04-28T12:43:41.249Z,953.29
2023-04-28T12:46:07.740Z,953.32
2023-04-28T12:48:34.075Z,953.25
2023-04-28T12:51:00.529Z,953.25
2023-04-28T12:53:27.038Z,953.20
2023-04-28T12:55:53.438Z,953.16
2023-04-28T12:58:19.812Z,953.12
2023-04-28T13:00:46.307Z,953.11
2023-04-28T13:03:12.799Z,953.03
2023-04-28T13:05:39.103Z,953.01
2023-04-28T13:08:05.530Z,953.05
2023-04-28T13:10:31.970Z,953.06
2023-04-28T13:12:58.394Z,952.99
2023-04-28T13:15:24.827Z,952.97
2023-04-28T13:17:51.310Z,952.95
2023-04-28T13:20:17.627Z,952.96
2023-04-28T13:22:44.073Z,952.92
2023-04-28T13:25:10.532Z,952.86
2023-04-28T13:27:37.768Z,952.91
2023-04-28T13:30:03.933Z,952.92
2023-04-28T13:32:30.242Z,952.89
2023-04-28T13:34:56.613Z,952.91
2023-04-28T13:37:23.074Z,952.85
2023-04-28T13:39:49.514Z,952.88
2023-04-28T13:42:15.915Z,952.80
2023-04-28T13:44:42.290Z,952.74
2023-04-28T13:47:08.665Z,952.76
2023-04-28T13:49:35.103Z,952.67
2023-04-28T13:52:02.992Z,952.63
2023-04-28T13:54:29.662Z,952.75
2023-04-28T13:56:56.144Z,952.70
2023-04-28T13:59:22.709Z,952.70
2023-04-28T14:01:49.310Z,952.60
2023-04-28T14:04:15.814Z,952.54
2023-04-28T14:06:42.132Z,952.53
2023-04-28T14:09:08.583Z,952.56
2023-04-28T14:11:34.970Z,952.54
2023-04-28T14:14:01.396Z,952.59
2023-04-28T14:16:28.062Z,952.61
2023-04-28T14:18:54.326Z,952.68
2023-04-28T14:21:20.734Z,952.67
2023-04-28T14:23:47.099Z,952.62
2023-04-28T14:26:13.474Z,952.57
2023-04-28T14:28:39.890Z,952.62
2023-04-28T14:31:06.466Z,952.52
2023-04-28T14:33:32.812Z,952.43
2023-04-28T14:35:59.253Z,952.43
2023-04-28T14:38:25.872Z,952.32
2023-04-28T14:40:52.232Z,952.28
2023-04-28T14:43:18.654Z,952.25
2023-04-28T14:45:45.055Z,952.25
2023-04-28T14:48:11.448Z,952.30
2023-04-28T14:50:37.913Z,952.18
2023-04-28T14:53:04.457Z,952.20
2023-04-28T14:55:30.851Z,952.21
2023-04-28T14:57:57.221Z,952.28
2023-04-28T15:00:23.757Z,952.21
2023-04-28T15:02:50.297Z,952.30
2023-04-28T15:05:16.550Z,952.31
2023-04-28T15:07:43.006Z,952.30
2023-04-28T15:10:09.420Z,952.27
2023-04-28T15:12:35.828Z,952.24
2023-04-28T15:15:02.357Z,952.31
2023-04-28T15:17:28.898Z,952.33
2023-04-28T15:19:55.296Z,952.36
2023-04-28T15:22:21.810Z,952.31
2023-04-28T15:24:48.462Z,952.26
2023-04-28T15:27:14.571Z,952.33
2023-04-28T15:29:41.002Z,952.29
2023-04-28T15:32:07.414Z,952.20
2023-04-28T15:34:34.090Z,952.25
2023-04-28T15:37:00.448Z,952.22
2023-04-28T15:39:26.879Z,952.27
2023-04-28T15:41:53.268Z,952.23
2023-04-28T15:44:19.662Z,952.20
2023-04-28T15:46:46.117Z,952.25
2023-04-28T15:49:12.550Z,952.20
2023-04-28T15:51:38.929Z,952.24
2023-04-28T15:54:05.317Z,952.19
2023-04-28T15:56:31.665Z,952.21
2023-04-28T15:58:58.106Z,952.09
2023-04-28T16:01:24.538Z,952.18
2023-04-28T16:03:51.059Z,952.17
2023-04-28T16:06:17.362Z,952.13
2023-04-28T16:08:43.769Z,952.13
2023-04-28T16:11:10.232Z,952.10
2023-04-28T16:13:36.743Z,952.11
2023-04-28T16:16:03.182Z,952.10
2023-04-28T16:18:29.594Z,952.16
2023-04-28T16:20:55.968Z,952.18
2023-04-28T16:23:22.419Z,952.22
2023-04-28T16:25:48.828Z,952.17
2023-04-28T16:28:15.275Z,952.18
2023-04-28T16:30:41.869Z,952.16
2023-04-28T16:33:08.251Z,952.14
2023-04-28T16:35:36.228Z,952.20
2023-04-28T16:38:02.637Z,952.27
2023-04-28T16:40:29.144Z,952.27
2023-04-28T16:42:55.535Z,952.31
2023-04-28T16:45:21.895Z,952.28
2023-04-28T16:47:48.375Z,952.32
2023-04-28T16:50:14.944Z,952.30
2023-04-28T16:52:41.116Z,952.28
2023-04-28T16:55:07.520Z,952.37
2023-04-28T16:57:33.917Z,952.33
2023-04-28T17:00:00.372Z,952.37
2023-04-28T17:02:27.169Z,952.32
2023-04-28T17:04:53.541Z,952.36
2023-04-28T17:07:19.963Z,952.43
2023-04-28T17:09:46.346Z,952.46
2023-04-28T17:12:12.800Z,952.42
2023-04-28T17:14:39.203Z,952.43
2023-04-28T17:17:05.616Z,952.45
2023-04-28T17:19:32.020Z,952.47
2023-04-28T17:21:58.461Z,952.50
2023-04-28T17:24:24.956Z,952.48
2023-04-28T17:26:52.447Z,952.54
2023-04-28T17:29:18.857Z,952.54
2023-04-28T17:31:45.353Z,952.60
2023-04-28T17:34:11.770Z,952.58
2023-04-28T17:36:38.185Z,952.54
2023-04-28T17:39:04.610Z,952.64
2023-04-28T17:41:31.013Z,952.69
2023-04-28T17:43:57.638Z,952.72
2023-04-28T17:46:24.130Z,952.80
2023-04-28T17:48:50.540Z,952.84
2023-04-28T17:51:17.036Z,952.88
2023-04-28T17:53:43.499Z,952.93
2023-04-28T17:56:09.820Z,952.98
2023-04-28T17:58:36.444Z,953.01
2023-04-28T18:01:02.838Z,953.05
2023-04-28T18:03:29.434Z,953.05
2023-04-28T18:05:55.776Z,953.10
2023-04-28T18:08:22.304Z,953.18
2023-04-28T18:10:48.680Z,953.12
2023-04-28T18:13:15.106Z,953.11
2023-04-28T18:15:41.591Z,953.19
2023-04-28T18:18:08.007Z,953.17
2023-04-28T18:20:34.499Z,953.20
2023-04-28T18:23:00.823Z,953.22
2023-04-28T18:25:27.282Z,953.31
2023-04-28T18:27:53.753Z,953.37
2023-04-28T18:30:20.115Z,953.35
2023-04-28T18:32:46.621Z,953.31
2023-04-28T18:35:13.051Z,953.33
2023-04-28T18:37:39.489Z,953.40
2023-04-28T18:40:05.920Z,953.41
2023-04-28T18:42:32.382Z,953.43
2023-04-28T18:44:58.906Z,953.45
2023-04-28T18:47:25.304Z,953.48
2023-04-28T18:49:51.813Z,953.49
2023-04-28T18:52:18.173Z,953.52
2023-04-28T18:54:45.291Z,953.57
2023-04-28T18:57:12.000Z,953.60
2023-04-28T18:59:38.613Z,953.63
2023-04-28T19:02:05.481Z,953.67
2023-04-28T19:04:32.322Z,953.63
2023-04-28T19:07:00.130Z,953.65
2023-04-28T19:09:27.267Z,953.65
2023-04-28T19:11:54.519Z,953.58
2023-04-28T19:14:21.391Z,953.61
2023-04-28T19:16:48.454Z,953.60
2023-04-28T19:19:17.255Z,953.61
2023-04-28T19:21:43.867Z,953.57
2023-04-28T19:24:13.086Z,953.53
2023-04-28T19:26:39.421Z,953.50
2023-04-28T19:29:05.923Z,953.53
2023-04-28T19:31:32.380Z,953.51
2023-04-28T19:33:58.767Z,953.47
2023-04-28T19:36:25.220Z,953.50
2023-04-28T19:38:51.687Z,953.53
2023-04-28T19:41:18.145Z,953.52
2023-04-28T19:43:44.491Z,953.43
2023-04-28T19:46:10.974Z,953.43
2023-04-28T19:48:37.376Z,953.43
2023-04-28T19:51:03.879Z,953.45
2023-04-28T19:53:30.310Z,953.45
2023-04-28T19:55:56.679Z,953.45
2023-04-28T19:58:23.126Z,953.48
2023-04-28T20:00:49.564Z,953.46
2023-04-28T20:03:16.075Z,953.42
2023-04-28T20:05:43.387Z,953.46
2023-04-28T20:08:09.863Z,953.43
2023-04-28T20:10:36.377Z,953.36
2023-04-28T20:13:02.879Z,953.41
2023-04-28T20:15:29.364Z,953.45
2023-04-28T20:17:55.822Z,953.37
2023-04-28T20:20:22.157Z,953.36
2023-04-28T20:22:48.777Z,953.45
2023-04-28T20:25:15.148Z,953.40
2023-04-28T20:27:41.562Z,953.37
2023-04-28T20:30:08.100Z,953.35
2023-04-28T20:32:34.585Z,953.26
2023-04-28T20:35:02.721Z,953.25
2023-04-28T20:37:30.605Z,953.24
2023-04-28T20:39:57.072Z,953.25
2023-04-28T20:42:23.432Z,953.20
2023-04-28T20:44:50.016Z,953.16
2023-04-28T20:47:16.411Z,953.20
2023-04-28T20:49:42.864Z,953.17
2023-04-28T20:52:11.328Z,953.18
2023-04-28T20:54:36.007Z,953.15
2023-04-28T20:57:02.250Z,953.25
2023-04-28T20:59:29.986Z,953.20
2023-04-28T21:01:55.264Z,953.17
2023-04-28T21:04:21.690Z,953.21
2023-04-28T21:06:48.200Z,953.22
2023-04-28T21:09:14.648Z,953.21
2023-04-28T21:11:41.117Z,953.28
2023-04-28T21:14:07.612Z,953.29
2023-04-28T21:16:34.055Z,953.26
2023-04-28T21:19:00.436Z,953.25
2023-04-28T21:21:26.873Z,953.25
2023-04-28T21:23:53.291Z,953.30
2023-04-28T21:26:19.659Z,953.26
2023-04-28T21:28:46.097Z,953.24
2023-04-28T21:31:12.593Z,953.25
2023-04-28T21:33:39.068Z,953.25
2023-04-28T21:36:05.527Z,953.17
2023-04-28T21:38:31.967Z,953.20
2023-04-28T21:40:58.375Z,953.15
2023-04-28T21:43:24.901Z,953.17
2023-04-28T21:45:51.358Z,953.17
2023-04-28T21:48:17.813Z,953.17
2023-04-28T21:50:44.201Z,953.10
2023-04-28T21:53:10.708Z,953.03
2023-04-28T21:55:37.389Z,953.08
2023-04-28T21:58:03.895Z,953.08
2023-04-28T22:00:30.285Z,953.10
2023-04-28T22:02:56.935Z,953.10
2023-04-28T22:05:23.373Z,953.12
2023-04-28T22:07:49.809Z,953.12
2023-04-28T22:10:16.421Z,953.10
2023-04-28T22:12:43.079Z,953.07
2023-04-28T22:15:09.600Z,953.07
2023-04-28T22:17:36.205Z,953.08
2023-04-28T22:20:02.653Z,953.12
2023-04-28T22:22:29.135Z,953.04
2023-04-28T22:24:55.740Z,953.07
2023-04-28T22:27:22.149Z,953.10
2023-04-28T22:29:48.777Z,953.05
2023-04-28T22:32:15.111Z,953.10
2023-04-28T22:34:44.237Z,953.05
2023-04-28T22:37:08.217Z,953.01
2023-04-28T22:39:34.848Z,953.06
2023-04-28T22:42:01.068Z,953.00
2023-04-28T22:44:27.678Z,952.99
2023-04-28T22:46:54.339Z,952.96
2023-04-28T22:49:20.689Z,952.97
2023-04-28T22:51:47.103Z,952.92
2023-04-28T22:54:13.657Z,952.87
2023-04-28T22:56:40.107Z,952.82
2023-04-28T22:59:06.592Z,952.78
2023-04-28T23:01:33.169Z,952.78
2023-04-28T23:03:59.598Z,952.75
2023-04-28T23:06:26.108Z,952.74
2023-04-28T23:08:52.556Z,952.69
2023-04-28T23:11:19.087Z,952.67
2023-04-28T23:13:45.628Z,952.68
2023-04-28T23:16:13.725Z,952.64
2023-04-28T23:18:38.640Z,952.67
2023-04-28T23:21:05.407Z,952.63
2023-04-28T23:23:31.812Z,952.59
2023-04-28T23:25:58.632Z,952.65
2023-04-28T23:28:25.131Z,952.67
2023-04-28T23:30:51.541Z,952.60
2023-04-28T23:33:18.026Z,952.60
2023-04-28T23:35:44.511Z,952.61
2023-04-28T23:38:11.039Z,952.58
2023-04-28T23:40:37.402Z,952.58
2023-04-28T23:43:03.943Z,952.49
2023-04-28T23:45:30.518Z,952.48
2023-04-28T23:47:56.942Z,952.45
2023-04-28T23:50:23.431Z,952.43
2023-04-28T23:52:49.976Z,952.43
2023-04-28T23:55:16.632Z,952.42
2023-04-28T23:57:43.097Z,952.45
